sensor_id;sensor_type;location;lat;lon;timestamp;P1;durP1;ratioP1;P2;durP2;ratioP2
20861;SDS011;10591;52.532;13.348;2024-02-21T00:01:14;17.05;;;7.47;;
20861;SDS011;10591;52.532;13.348;2024-02-21T00:03:46;20.40;;;7.70;;
20861;SDS011;10591;52.532;13.348;2024-02-21T00:06:16;18.10;;;7.85;;
20861;SDS011;10591;52.532;13.348;2024-02-21T00:08:47;15.53;;;7.45;;
20861;SDS011;10591;52.532;13.348;2024-02-21T00:11:20;14.50;;;7.03;;
20861;SDS011;10591;52.532;13.348;2024-02-21T00:13:51;15.08;;;7.05;;
20861;SDS011;10591;52.532;13.348;2024-02-21T00:16:23;17.82;;;7.58;;
20861;SDS011;10591;52.532;13.348;2024-02-21T00:18:57;17.82;;;7.50;;
20861;SDS011;10591;52.532;13.348;2024-02-21T00:21:28;16.97;;;7.33;;
20861;SDS011;10591;52.532;13.348;2024-02-21T00:23:59;23.02;;;13.22;;
20861;SDS011;10591;52.532;13.348;2024-02-21T00:26:29;18.73;;;8.18;;
20861;SDS011;10591;52.532;13.348;2024-02-21T00:29:00;18.95;;;6.90;;
20861;SDS011;10591;52.532;13.348;2024-02-21T00:31:33;17.55;;;7.22;;
20861;SDS011;10591;52.532;13.348;2024-02-21T00:34:04;14.05;;;6.45;;
20861;SDS011;10591;52.532;13.348;2024-02-21T00:36:35;19.55;;;7.45;;
20861;SDS011;10591;52.532;13.348;2024-02-21T00:39:10;14.80;;;6.15;;
20861;SDS011;10591;52.532;13.348;2024-02-21T00:41:40;18.32;;;6.83;;
20861;SDS011;10591;52.532;13.348;2024-02-21T00:44:11;14.87;;;7.22;;
20861;SDS011;10591;52.532;13.348;2024-02-21T00:46:41;15.18;;;7.30;;
20861;SDS011;10591;52.532;13.348;2024-02-21T00:49:12;17.30;;;6.70;;
20861;SDS011;10591;52.532;13.348;2024-02-21T00:51:43;16.27;;;6.60;;
20861;SDS011;10591;52.532;13.348;2024-02-21T00:54:14;13.55;;;6.15;;
20861;SDS011;10591;52.532;13.348;2024-02-21T00:56:45;12.88;;;5.85;;
20861;SDS011;10591;52.532;13.348;2024-02-21T00:59:15;17.10;;;6.83;;
20861;SDS011;10591;52.532;13.348;2024-02-21T01:01:46;17.05;;;7.22;;
20861;SDS011;10591;52.532;13.348;2024-02-21T01:04:16;17.90;;;6.60;;
20861;SDS011;10591;52.532;13.348;2024-02-21T01:06:47;13.08;;;6.28;;
20861;SDS011;10591;52.532;13.348;2024-02-21T01:09:18;14.05;;;5.37;;
20861;SDS011;10591;52.532;13.348;2024-02-21T01:11:49;13.15;;;6.62;;
20861;SDS011;10591;52.532;13.348;2024-02-21T01:14:21;17.02;;;6.80;;
20861;SDS011;10591;52.532;13.348;2024-02-21T01:16:52;12.75;;;5.87;;
20861;SDS011;10591;52.532;13.348;2024-02-21T01:19:29;12.18;;;5.85;;
20861;SDS011;10591;52.532;13.348;2024-02-21T01:22:01;16.20;;;6.42;;
20861;SDS011;10591;52.532;13.348;2024-02-21T01:24:32;16.02;;;6.70;;
20861;SDS011;10591;52.532;13.348;2024-02-21T01:27:03;14.13;;;6.37;;
20861;SDS011;10591;52.532;13.348;2024-02-21T01:29:35;15.28;;;6.30;;
20861;SDS011;10591;52.532;13.348;2024-02-21T01:32:07;17.75;;;5.80;;
20861;SDS011;10591;52.532;13.348;2024-02-21T01:34:37;11.88;;;6.00;;
20861;SDS011;10591;52.532;13.348;2024-02-21T01:37:10;13.75;;;5.70;;
20861;SDS011;10591;52.532;13.348;2024-02-21T01:39:40;13.75;;;5.97;;
20861;SDS011;10591;52.532;13.348;2024-02-21T01:42:11;11.93;;;6.00;;
20861;SDS011;10591;52.532;13.348;2024-02-21T01:44:42;15.38;;;5.67;;
20861;SDS011;10591;52.532;13.348;2024-02-21T01:47:13;15.88;;;6.03;;
20861;SDS011;10591;52.532;13.348;2024-02-21T01:49:45;13.08;;;5.80;;
20861;SDS011;10591;52.532;13.348;2024-02-21T01:52:17;11.03;;;5.53;;
20861;SDS011;10591;52.532;13.348;2024-02-21T01:54:50;17.70;;;5.80;;
20861;SDS011;10591;52.532;13.348;2024-02-21T01:57:21;17.02;;;5.85;;
20861;SDS011;10591;52.532;13.348;2024-02-21T01:59:53;13.40;;;5.83;;
20861;SDS011;10591;52.532;13.348;2024-02-21T02:02:24;12.78;;;5.75;;
20861;SDS011;10591;52.532;13.348;2024-02-21T02:04:55;13.32;;;6.50;;
20861;SDS011;10591;52.532;13.348;2024-02-21T02:07:27;11.35;;;5.67;;
20861;SDS011;10591;52.532;13.348;2024-02-21T02:09:58;15.48;;;5.87;;
20861;SDS011;10591;52.532;13.348;2024-02-21T02:12:29;13.78;;;5.80;;
20861;SDS011;10591;52.532;13.348;2024-02-21T02:15:00;15.28;;;6.33;;
20861;SDS011;10591;52.532;13.348;2024-02-21T02:17:35;13.18;;;6.12;;
20861;SDS011;10591;52.532;13.348;2024-02-21T02:20:06;14.70;;;6.12;;
20861;SDS011;10591;52.532;13.348;2024-02-21T02:22:37;14.63;;;6.10;;
20861;SDS011;10591;52.532;13.348;2024-02-21T02:25:11;13.55;;;5.72;;
20861;SDS011;10591;52.532;13.348;2024-02-21T02:27:42;13.40;;;6.25;;
20861;SDS011;10591;52.532;13.348;2024-02-21T02:30:14;15.13;;;5.72;;
20861;SDS011;10591;52.532;13.348;2024-02-21T02:32:45;14.47;;;5.92;;
20861;SDS011;10591;52.532;13.348;2024-02-21T02:35:16;16.48;;;6.12;;
20861;SDS011;10591;52.532;13.348;2024-02-21T02:37:50;12.23;;;5.97;;
20861;SDS011;10591;52.532;13.348;2024-02-21T02:40:21;13.78;;;5.90;;
20861;SDS011;10591;52.532;13.348;2024-02-21T02:42:52;17.27;;;6.70;;
20861;SDS011;10591;52.532;13.348;2024-02-21T02:45:24;19.30;;;6.15;;
20861;SDS011;10591;52.532;13.348;2024-02-21T02:47:56;15.40;;;6.22;;
20861;SDS011;10591;52.532;13.348;2024-02-21T02:50:29;14.50;;;6.28;;
20861;SDS011;10591;52.532;13.348;2024-02-21T02:53:00;19.27;;;6.75;;
20861;SDS011;10591;52.532;13.348;2024-02-21T02:55:31;18.20;;;6.00;;
20861;SDS011;10591;52.532;13.348;2024-02-21T02:58:01;17.23;;;6.45;;
20861;SDS011;10591;52.532;13.348;2024-02-21T03:00:32;16.62;;;6.83;;
20861;SDS011;10591;52.532;13.348;2024-02-21T03:03:05;15.05;;;7.05;;
20861;SDS011;10591;52.532;13.348;2024-02-21T03:05:37;15.43;;;6.45;;
20861;SDS011;10591;52.532;13.348;2024-02-21T03:08:08;16.50;;;6.55;;
20861;SDS011;10591;52.532;13.348;2024-02-21T03:10:39;14.40;;;6.92;;
20861;SDS011;10591;52.532;13.348;2024-02-21T03:13:10;13.40;;;6.75;;
20861;SDS011;10591;52.532;13.348;2024-02-21T03:15:41;18.00;;;7.20;;
20861;SDS011;10591;52.532;13.348;2024-02-21T03:18:12;17.30;;;7.33;;
20861;SDS011;10591;52.532;13.348;2024-02-21T03:20:42;17.98;;;7.47;;
20861;SDS011;10591;52.532;13.348;2024-02-21T03:23:13;14.38;;;7.03;;
20861;SDS011;10591;52.532;13.348;2024-02-21T03:25:46;15.15;;;7.03;;
20861;SDS011;10591;52.532;13.348;2024-02-21T03:28:16;15.58;;;7.42;;
20861;SDS011;10591;52.532;13.348;2024-02-21T03:30:49;13.13;;;6.58;;
20861;SDS011;10591;52.532;13.348;2024-02-21T03:33:21;13.88;;;7.53;;
20861;SDS011;10591;52.532;13.348;2024-02-21T03:35:54;20.30;;;7.67;;
20861;SDS011;10591;52.532;13.348;2024-02-21T03:38:24;14.05;;;7.67;;
20861;SDS011;10591;52.532;13.348;2024-02-21T03:40:55;14.70;;;7.95;;
20861;SDS011;10591;52.532;13.348;2024-02-21T03:43:25;17.10;;;8.20;;
20861;SDS011;10591;52.532;13.348;2024-02-21T03:45:56;18.85;;;8.13;;
20861;SDS011;10591;52.532;13.348;2024-02-21T03:48:27;18.30;;;8.93;;
20861;SDS011;10591;52.532;13.348;2024-02-21T03:50:58;16.97;;;8.58;;
20861;SDS011;10591;52.532;13.348;2024-02-21T03:53:28;17.60;;;8.10;;
20861;SDS011;10591;52.532;13.348;2024-02-21T03:56:04;19.25;;;8.35;;
20861;SDS011;10591;52.532;13.348;2024-02-21T03:58:35;21.33;;;8.50;;
20861;SDS011;10591;52.532;13.348;2024-02-21T04:01:06;15.28;;;8.40;;
20861;SDS011;10591;52.532;13.348;2024-02-21T04:03:37;20.05;;;8.48;;
20861;SDS011;10591;52.532;13.348;2024-02-21T04:06:09;21.50;;;8.45;;
20861;SDS011;10591;52.532;13.348;2024-02-21T04:08:41;18.12;;;8.73;;
20861;SDS011;10591;52.532;13.348;2024-02-21T04:11:12;16.55;;;8.58;;
20861;SDS011;10591;52.532;13.348;2024-02-21T04:13:42;17.45;;;8.28;;
20861;SDS011;10591;52.532;13.348;2024-02-21T04:16:13;20.75;;;8.48;;
20861;SDS011;10591;52.532;13.348;2024-02-21T04:18:44;16.73;;;8.48;;
20861;SDS011;10591;52.532;13.348;2024-02-21T04:21:16;19.82;;;9.15;;
20861;SDS011;10591;52.532;13.348;2024-02-21T04:23:47;16.87;;;8.53;;
20861;SDS011;10591;52.532;13.348;2024-02-21T04:26:18;14.87;;;8.43;;
20861;SDS011;10591;52.532;13.348;2024-02-21T04:28:48;21.40;;;8.63;;
20861;SDS011;10591;52.532;13.348;2024-02-21T04:31:19;20.10;;;9.43;;
20861;SDS011;10591;52.532;13.348;2024-02-21T04:33:50;15.48;;;8.70;;
20861;SDS011;10591;52.532;13.348;2024-02-21T04:36:21;21.77;;;9.10;;
20861;SDS011;10591;52.532;13.348;2024-02-21T04:38:52;16.52;;;7.85;;
20861;SDS011;10591;52.532;13.348;2024-02-21T04:41:23;17.45;;;9.05;;
20861;SDS011;10591;52.532;13.348;2024-02-21T04:43:54;19.05;;;8.23;;
20861;SDS011;10591;52.532;13.348;2024-02-21T04:46:25;16.25;;;8.43;;
20861;SDS011;10591;52.532;13.348;2024-02-21T04:48:56;16.55;;;8.68;;
20861;SDS011;10591;52.532;13.348;2024-02-21T04:51:26;21.33;;;9.28;;
20861;SDS011;10591;52.532;13.348;2024-02-21T04:53:57;18.20;;;8.40;;
20861;SDS011;10591;52.532;13.348;2024-02-21T04:56:28;15.85;;;8.58;;
20861;SDS011;10591;52.532;13.348;2024-02-21T04:58:59;16.65;;;9.00;;
20861;SDS011;10591;52.532;13.348;2024-02-21T05:01:30;16.07;;;8.90;;
20861;SDS011;10591;52.532;13.348;2024-02-21T05:04:01;19.73;;;8.73;;
20861;SDS011;10591;52.532;13.348;2024-02-21T05:06:31;21.40;;;8.13;;
20861;SDS011;10591;52.532;13.348;2024-02-21T05:09:03;18.45;;;8.53;;
20861;SDS011;10591;52.532;13.348;2024-02-21T05:11:36;14.73;;;8.83;;
20861;SDS011;10591;52.532;13.348;2024-02-21T05:14:07;17.15;;;8.28;;
20861;SDS011;10591;52.532;13.348;2024-02-21T05:16:38;17.45;;;8.90;;
20861;SDS011;10591;52.532;13.348;2024-02-21T05:19:09;18.05;;;8.73;;
20861;SDS011;10591;52.532;13.348;2024-02-21T05:21:40;20.00;;;8.90;;
20861;SDS011;10591;52.532;13.348;2024-02-21T05:24:11;18.75;;;8.55;;
20861;SDS011;10591;52.532;13.348;2024-02-21T05:26:42;17.02;;;8.73;;
20861;SDS011;10591;52.532;13.348;2024-02-21T05:29:12;19.82;;;9.20;;
20861;SDS011;10591;52.532;13.348;2024-02-21T05:34:27;14.95;;;7.70;;
20861;SDS011;10591;52.532;13.348;2024-02-21T05:36:58;19.87;;;8.95;;
20861;SDS011;10591;52.532;13.348;2024-02-21T05:39:29;16.12;;;9.08;;
20861;SDS011;10591;52.532;13.348;2024-02-21T05:42:01;22.87;;;9.78;;
20861;SDS011;10591;52.532;13.348;2024-02-21T05:44:31;17.20;;;8.68;;
20861;SDS011;10591;52.532;13.348;2024-02-21T05:47:03;15.83;;;9.38;;
20861;SDS011;10591;52.532;13.348;2024-02-21T05:49:36;19.80;;;8.80;;
20861;SDS011;10591;52.532;13.348;2024-02-21T05:52:07;20.27;;;9.90;;
20861;SDS011;10591;52.532;13.348;2024-02-21T05:54:38;17.45;;;8.85;;
20861;SDS011;10591;52.532;13.348;2024-02-21T05:57:09;18.50;;;9.00;;
20861;SDS011;10591;52.532;13.348;2024-02-21T05:59:40;22.90;;;9.30;;
20861;SDS011;10591;52.532;13.348;2024-02-21T06:02:12;21.07;;;9.65;;
20861;SDS011;10591;52.532;13.348;2024-02-21T06:04:43;21.75;;;9.45;;
20861;SDS011;10591;52.532;13.348;2024-02-21T06:07:15;18.98;;;9.10;;
20861;SDS011;10591;52.532;13.348;2024-02-21T06:09:46;25.30;;;10.50;;
20861;SDS011;10591;52.532;13.348;2024-02-21T06:12:17;15.80;;;9.43;;
20861;SDS011;10591;52.532;13.348;2024-02-21T06:14:47;23.12;;;9.40;;
20861;SDS011;10591;52.532;13.348;2024-02-21T06:17:19;20.10;;;8.98;;
20861;SDS011;10591;52.532;13.348;2024-02-21T06:19:50;15.80;;;8.88;;
20861;SDS011;10591;52.532;13.348;2024-02-21T06:22:21;23.55;;;9.40;;
20861;SDS011;10591;52.532;13.348;2024-02-21T06:24:52;22.37;;;10.25;;
20861;SDS011;10591;52.532;13.348;2024-02-21T06:27:23;17.82;;;9.43;;
20861;SDS011;10591;52.532;13.348;2024-02-21T06:29:55;18.42;;;9.63;;
20861;SDS011;10591;52.532;13.348;2024-02-21T06:32:25;21.15;;;11.05;;
20861;SDS011;10591;52.532;13.348;2024-02-21T06:34:56;21.90;;;10.72;;
20861;SDS011;10591;52.532;13.348;2024-02-21T06:37:27;19.05;;;10.13;;
20861;SDS011;10591;52.532;13.348;2024-02-21T06:40:00;19.82;;;10.80;;
20861;SDS011;10591;52.532;13.348;2024-02-21T06:42:33;19.70;;;11.38;;
20861;SDS011;10591;52.532;13.348;2024-02-21T06:45:04;18.45;;;10.65;;
20861;SDS011;10591;52.532;13.348;2024-02-21T06:47:35;19.98;;;10.35;;
20861;SDS011;10591;52.532;13.348;2024-02-21T06:50:07;19.62;;;9.70;;
20861;SDS011;10591;52.532;13.348;2024-02-21T06:52:38;17.50;;;9.63;;
20861;SDS011;10591;52.532;13.348;2024-02-21T06:55:11;16.05;;;10.23;;
20861;SDS011;10591;52.532;13.348;2024-02-21T06:57:43;19.10;;;9.88;;
20861;SDS011;10591;52.532;13.348;2024-02-21T07:00:14;15.15;;;9.43;;
20861;SDS011;10591;52.532;13.348;2024-02-21T07:02:45;20.57;;;10.13;;
20861;SDS011;10591;52.532;13.348;2024-02-21T07:05:17;17.90;;;9.95;;
20861;SDS011;10591;52.532;13.348;2024-02-21T07:07:48;15.98;;;9.85;;
20861;SDS011;10591;52.532;13.348;2024-02-21T07:10:19;16.50;;;9.80;;
20861;SDS011;10591;52.532;13.348;2024-02-21T07:12:52;19.20;;;10.05;;
20861;SDS011;10591;52.532;13.348;2024-02-21T07:15:23;15.58;;;9.85;;
20861;SDS011;10591;52.532;13.348;2024-02-21T07:17:55;18.17;;;9.65;;
20861;SDS011;10591;52.532;13.348;2024-02-21T07:20:26;19.45;;;9.73;;
20861;SDS011;10591;52.532;13.348;2024-02-21T07:22:58;19.87;;;10.13;;
20861;SDS011;10591;52.532;13.348;2024-02-21T07:25:30;16.10;;;9.95;;
20861;SDS011;10591;52.532;13.348;2024-02-21T07:28:00;14.30;;;9.18;;
20861;SDS011;10591;52.532;13.348;2024-02-21T07:30:32;19.75;;;9.63;;
20861;SDS011;10591;52.532;13.348;2024-02-21T07:33:02;15.93;;;9.45;;
20861;SDS011;10591;52.532;13.348;2024-02-21T07:35:34;17.07;;;9.60;;
20861;SDS011;10591;52.532;13.348;2024-02-21T07:38:11;17.12;;;9.60;;
20861;SDS011;10591;52.532;13.348;2024-02-21T07:40:43;15.60;;;9.88;;
20861;SDS011;10591;52.532;13.348;2024-02-21T07:43:14;18.45;;;9.30;;
20861;SDS011;10591;52.532;13.348;2024-02-21T07:45:46;16.07;;;9.10;;
20861;SDS011;10591;52.532;13.348;2024-02-21T07:48:16;17.92;;;9.05;;
20861;SDS011;10591;52.532;13.348;2024-02-21T07:50:47;14.25;;;8.95;;
20861;SDS011;10591;52.532;13.348;2024-02-21T07:53:19;15.70;;;9.13;;
20861;SDS011;10591;52.532;13.348;2024-02-21T07:55:50;15.88;;;8.75;;
20861;SDS011;10591;52.532;13.348;2024-02-21T07:58:21;15.23;;;8.70;;
20861;SDS011;10591;52.532;13.348;2024-02-21T08:00:52;13.72;;;8.80;;
20861;SDS011;10591;52.532;13.348;2024-02-21T08:03:22;13.98;;;8.73;;
20861;SDS011;10591;52.532;13.348;2024-02-21T08:05:54;15.50;;;8.60;;
20861;SDS011;10591;52.532;13.348;2024-02-21T08:08:25;15.13;;;8.98;;
20861;SDS011;10591;52.532;13.348;2024-02-21T08:10:57;15.45;;;8.73;;
20861;SDS011;10591;52.532;13.348;2024-02-21T08:13:28;18.67;;;8.53;;
20861;SDS011;10591;52.532;13.348;2024-02-21T08:16:01;15.63;;;8.20;;
20861;SDS011;10591;52.532;13.348;2024-02-21T08:18:32;14.20;;;8.45;;
20861;SDS011;10591;52.532;13.348;2024-02-21T08:21:04;15.25;;;9.13;;
20861;SDS011;10591;52.532;13.348;2024-02-21T08:23:35;14.78;;;8.75;;
20861;SDS011;10591;52.532;13.348;2024-02-21T08:26:06;16.45;;;8.90;;
20861;SDS011;10591;52.532;13.348;2024-02-21T08:28:36;22.00;;;9.20;;
20861;SDS011;10591;52.532;13.348;2024-02-21T08:31:10;15.40;;;8.68;;
20861;SDS011;10591;52.532;13.348;2024-02-21T08:33:40;19.20;;;8.70;;
20861;SDS011;10591;52.532;13.348;2024-02-21T08:36:19;17.98;;;8.13;;
20861;SDS011;10591;52.532;13.348;2024-02-21T08:38:50;16.93;;;8.98;;
20861;SDS011;10591;52.532;13.348;2024-02-21T08:41:20;16.30;;;9.40;;
20861;SDS011;10591;52.532;13.348;2024-02-21T08:43:55;17.15;;;9.13;;
20861;SDS011;10591;52.532;13.348;2024-02-21T08:46:26;17.07;;;8.80;;
20861;SDS011;10591;52.532;13.348;2024-02-21T08:48:57;13.88;;;8.83;;
20861;SDS011;10591;52.532;13.348;2024-02-21T08:51:28;13.00;;;8.70;;
20861;SDS011;10591;52.532;13.348;2024-02-21T08:53:59;15.18;;;9.05;;
20861;SDS011;10591;52.532;13.348;2024-02-21T08:56:31;15.78;;;9.45;;
20861;SDS011;10591;52.532;13.348;2024-02-21T08:59:04;17.30;;;10.08;;
20861;SDS011;10591;52.532;13.348;2024-02-21T09:01:36;18.50;;;9.28;;
20861;SDS011;10591;52.532;13.348;2024-02-21T09:04:07;18.30;;;9.53;;
20861;SDS011;10591;52.532;13.348;2024-02-21T09:06:38;17.48;;;9.53;;
20861;SDS011;10591;52.532;13.348;2024-02-21T09:09:10;14.70;;;9.98;;
20861;SDS011;10591;52.532;13.348;2024-02-21T09:11:41;18.07;;;9.63;;
20861;SDS011;10591;52.532;13.348;2024-02-21T09:14:12;16.15;;;10.08;;
20861;SDS011;10591;52.532;13.348;2024-02-21T09:16:43;17.87;;;11.22;;
20861;SDS011;10591;52.532;13.348;2024-02-21T09:19:14;15.43;;;9.33;;
20861;SDS011;10591;52.532;13.348;2024-02-21T09:21:47;14.00;;;8.80;;
20861;SDS011;10591;52.532;13.348;2024-02-21T09:24:18;19.07;;;9.30;;
20861;SDS011;10591;52.532;13.348;2024-02-21T09:26:49;14.03;;;8.75;;
20861;SDS011;10591;52.532;13.348;2024-02-21T09:29:19;18.60;;;9.30;;
20861;SDS011;10591;52.532;13.348;2024-02-21T09:31:54;15.18;;;9.28;;
20861;SDS011;10591;52.532;13.348;2024-02-21T09:34:25;14.47;;;9.45;;
20861;SDS011;10591;52.532;13.348;2024-02-21T09:36:56;14.18;;;9.53;;
20861;SDS011;10591;52.532;13.348;2024-02-21T09:39:27;17.12;;;10.55;;
20861;SDS011;10591;52.532;13.348;2024-02-21T09:41:59;17.55;;;10.08;;
20861;SDS011;10591;52.532;13.348;2024-02-21T09:44:36;16.85;;;11.75;;
20861;SDS011;10591;52.532;13.348;2024-02-21T09:47:22;16.90;;;10.75;;
20861;SDS011;10591;52.532;13.348;2024-02-21T09:49:54;19.05;;;10.50;;
20861;SDS011;10591;52.532;13.348;2024-02-21T09:52:26;15.45;;;9.78;;
20861;SDS011;10591;52.532;13.348;2024-02-21T09:54:58;18.25;;;10.05;;
20861;SDS011;10591;52.532;13.348;2024-02-21T09:57:30;19.67;;;10.28;;
20861;SDS011;10591;52.532;13.348;2024-02-21T10:00:02;17.87;;;10.80;;
20861;SDS011;10591;52.532;13.348;2024-02-21T10:02:39;15.70;;;10.28;;
20861;SDS011;10591;52.532;13.348;2024-02-21T10:05:10;13.85;;;9.58;;
20861;SDS011;10591;52.532;13.348;2024-02-21T10:07:43;16.65;;;10.15;;
20861;SDS011;10591;52.532;13.348;2024-02-21T10:10:14;18.02;;;10.65;;
20861;SDS011;10591;52.532;13.348;2024-02-21T10:12:51;15.50;;;10.00;;
20861;SDS011;10591;52.532;13.348;2024-02-21T10:15:22;15.38;;;9.93;;
20861;SDS011;10591;52.532;13.348;2024-02-21T10:17:58;14.38;;;9.70;;
20861;SDS011;10591;52.532;13.348;2024-02-21T10:20:32;15.63;;;10.43;;
20861;SDS011;10591;52.532;13.348;2024-02-21T10:23:04;15.70;;;10.48;;
20861;SDS011;10591;52.532;13.348;2024-02-21T10:25:38;16.93;;;9.98;;
20861;SDS011;10591;52.532;13.348;2024-02-21T10:28:12;17.95;;;9.63;;
20861;SDS011;10591;52.532;13.348;2024-02-21T10:30:50;17.00;;;9.85;;
20861;SDS011;10591;52.532;13.348;2024-02-21T10:33:22;15.40;;;9.78;;
20861;SDS011;10591;52.532;13.348;2024-02-21T10:35:54;14.78;;;9.43;;
20861;SDS011;10591;52.532;13.348;2024-02-21T10:38:27;13.80;;;9.05;;
20861;SDS011;10591;52.532;13.348;2024-02-21T10:41:00;15.53;;;9.25;;
20861;SDS011;10591;52.532;13.348;2024-02-21T10:43:36;14.83;;;9.83;;
20861;SDS011;10591;52.532;13.348;2024-02-21T10:46:10;15.90;;;9.73;;
20861;SDS011;10591;52.532;13.348;2024-02-21T10:48:42;14.55;;;9.43;;
20861;SDS011;10591;52.532;13.348;2024-02-21T10:51:17;12.93;;;9.28;;
20861;SDS011;10591;52.532;13.348;2024-02-21T10:54:02;15.72;;;10.45;;
20861;SDS011;10591;52.532;13.348;2024-02-21T10:56:41;13.95;;;9.43;;
20861;SDS011;10591;52.532;13.348;2024-02-21T10:59:13;15.38;;;9.55;;
20861;SDS011;10591;52.532;13.348;2024-02-21T11:01:44;14.73;;;8.65;;
20861;SDS011;10591;52.532;13.348;2024-02-21T11:04:15;13.35;;;9.33;;
20861;SDS011;10591;52.532;13.348;2024-02-21T11:06:47;14.20;;;9.78;;
20861;SDS011;10591;52.532;13.348;2024-02-21T11:09:28;17.27;;;9.78;;
20861;SDS011;10591;52.532;13.348;2024-02-21T11:11:55;13.72;;;9.18;;
20861;SDS011;10591;52.532;13.348;2024-02-21T11:14:28;13.98;;;9.35;;
20861;SDS011;10591;52.532;13.348;2024-02-21T11:17:01;11.90;;;8.35;;
20861;SDS011;10591;52.532;13.348;2024-02-21T11:19:33;13.22;;;8.90;;
20861;SDS011;10591;52.532;13.348;2024-02-21T11:22:04;11.80;;;8.45;;
20861;SDS011;10591;52.532;13.348;2024-02-21T11:24:38;12.05;;;8.38;;
20861;SDS011;10591;52.532;13.348;2024-02-21T11:27:09;12.25;;;8.60;;
20861;SDS011;10591;52.532;13.348;2024-02-21T11:29:54;10.68;;;8.28;;
20861;SDS011;10591;52.532;13.348;2024-02-21T11:32:21;9.00;;;7.53;;
20861;SDS011;10591;52.532;13.348;2024-02-21T11:34:59;10.50;;;7.95;;
20861;SDS011;10591;52.532;13.348;2024-02-21T11:37:35;9.30;;;7.92;;
20861;SDS011;10591;52.532;13.348;2024-02-21T11:40:07;10.85;;;7.40;;
20861;SDS011;10591;52.532;13.348;2024-02-21T11:42:41;9.03;;;7.20;;
20861;SDS011;10591;52.532;13.348;2024-02-21T11:45:14;9.50;;;6.95;;
20861;SDS011;10591;52.532;13.348;2024-02-21T11:47:46;8.90;;;6.83;;
20861;SDS011;10591;52.532;13.348;2024-02-21T11:50:18;10.53;;;7.25;;
20861;SDS011;10591;52.532;13.348;2024-02-21T11:52:50;8.60;;;6.78;;
20861;SDS011;10591;52.532;13.348;2024-02-21T11:55:22;8.68;;;6.80;;
20861;SDS011;10591;52.532;13.348;2024-02-21T11:57:52;8.85;;;6.62;;
20861;SDS011;10591;52.532;13.348;2024-02-21T12:00:23;8.73;;;6.37;;
20861;SDS011;10591;52.532;13.348;2024-02-21T12:02:55;9.15;;;6.30;;
20861;SDS011;10591;52.532;13.348;2024-02-21T12:05:27;7.45;;;6.55;;
20861;SDS011;10591;52.532;13.348;2024-02-21T12:07:58;7.53;;;6.35;;
20861;SDS011;10591;52.532;13.348;2024-02-21T12:10:29;7.75;;;6.10;;
20861;SDS011;10591;52.532;13.348;2024-02-21T12:13:07;8.43;;;6.25;;
20861;SDS011;10591;52.532;13.348;2024-02-21T12:15:40;8.90;;;6.30;;
20861;SDS011;10591;52.532;13.348;2024-02-21T12:18:10;11.85;;;6.80;;
20861;SDS011;10591;52.532;13.348;2024-02-21T12:20:41;9.35;;;6.62;;
20861;SDS011;10591;52.532;13.348;2024-02-21T12:23:12;8.28;;;5.90;;
20861;SDS011;10591;52.532;13.348;2024-02-21T12:25:43;7.80;;;6.53;;
20861;SDS011;10591;52.532;13.348;2024-02-21T12:28:14;9.30;;;6.30;;
20861;SDS011;10591;52.532;13.348;2024-02-21T12:30:46;8.48;;;6.17;;
20861;SDS011;10591;52.532;13.348;2024-02-21T12:33:17;8.03;;;6.05;;
20861;SDS011;10591;52.532;13.348;2024-02-21T12:35:48;8.20;;;6.35;;
20861;SDS011;10591;52.532;13.348;2024-02-21T12:38:18;9.00;;;5.75;;
20861;SDS011;10591;52.532;13.348;2024-02-21T12:40:49;10.13;;;5.90;;
20861;SDS011;10591;52.532;13.348;2024-02-21T12:43:20;6.67;;;5.37;;
20861;SDS011;10591;52.532;13.348;2024-02-21T12:45:52;6.08;;;5.47;;
20861;SDS011;10591;52.532;13.348;2024-02-21T12:48:23;7.20;;;5.30;;
20861;SDS011;10591;52.532;13.348;2024-02-21T12:50:55;7.62;;;5.25;;
20861;SDS011;10591;52.532;13.348;2024-02-21T12:53:26;6.92;;;4.92;;
20861;SDS011;10591;52.532;13.348;2024-02-21T12:55:58;9.13;;;6.45;;
20861;SDS011;10591;52.532;13.348;2024-02-21T12:58:28;7.47;;;5.12;;
20861;SDS011;10591;52.532;13.348;2024-02-21T13:01:05;6.30;;;4.80;;
20861;SDS011;10591;52.532;13.348;2024-02-21T13:03:39;7.47;;;5.42;;
20861;SDS011;10591;52.532;13.348;2024-02-21T13:06:12;9.20;;;5.47;;
20861;SDS011;10591;52.532;13.348;2024-02-21T13:08:43;6.97;;;5.78;;
20861;SDS011;10591;52.532;13.348;2024-02-21T13:11:14;8.88;;;5.15;;
20861;SDS011;10591;52.532;13.348;2024-02-21T13:13:46;7.83;;;5.17;;
20861;SDS011;10591;52.532;13.348;2024-02-21T13:16:17;8.45;;;5.20;;
20861;SDS011;10591;52.532;13.348;2024-02-21T13:18:48;7.72;;;5.33;;
20861;SDS011;10591;52.532;13.348;2024-02-21T13:21:19;6.03;;;4.40;;
20861;SDS011;10591;52.532;13.348;2024-02-21T13:23:50;7.28;;;5.25;;
20861;SDS011;10591;52.532;13.348;2024-02-21T13:26:20;9.78;;;5.58;;
20861;SDS011;10591;52.532;13.348;2024-02-21T13:28:51;6.70;;;5.17;;
20861;SDS011;10591;52.532;13.348;2024-02-21T13:31:22;7.00;;;5.00;;
20861;SDS011;10591;52.532;13.348;2024-02-21T13:33:54;6.83;;;4.85;;
20861;SDS011;10591;52.532;13.348;2024-02-21T13:36:25;6.87;;;4.42;;
20861;SDS011;10591;52.532;13.348;2024-02-21T13:38:55;5.78;;;5.00;;
20861;SDS011;10591;52.532;13.348;2024-02-21T13:41:26;7.20;;;5.00;;
20861;SDS011;10591;52.532;13.348;2024-02-21T13:43:59;7.08;;;5.28;;
20861;SDS011;10591;52.532;13.348;2024-02-21T13:46:30;6.42;;;4.75;;
20861;SDS011;10591;52.532;13.348;2024-02-21T13:49:04;7.00;;;4.80;;
20861;SDS011;10591;52.532;13.348;2024-02-21T13:51:38;6.28;;;5.50;;
20861;SDS011;10591;52.532;13.348;2024-02-21T13:54:09;8.85;;;5.75;;
20861;SDS011;10591;52.532;13.348;2024-02-21T13:56:42;7.92;;;5.45;;
20861;SDS011;10591;52.532;13.348;2024-02-21T13:59:13;6.85;;;5.10;;
20861;SDS011;10591;52.532;13.348;2024-02-21T14:01:43;8.88;;;5.35;;
20861;SDS011;10591;52.532;13.348;2024-02-21T14:04:15;9.80;;;5.83;;
20861;SDS011;10591;52.532;13.348;2024-02-21T14:06:46;6.05;;;5.15;;
20861;SDS011;10591;52.532;13.348;2024-02-21T14:09:18;9.13;;;5.67;;
20861;SDS011;10591;52.532;13.348;2024-02-21T14:11:49;8.95;;;5.30;;
20861;SDS011;10591;52.532;13.348;2024-02-21T14:14:22;5.87;;;4.83;;
20861;SDS011;10591;52.532;13.348;2024-02-21T14:16:53;7.60;;;4.90;;
20861;SDS011;10591;52.532;13.348;2024-02-21T14:19:25;6.95;;;4.83;;
20861;SDS011;10591;52.532;13.348;2024-02-21T14:21:55;6.67;;;4.53;;
20861;SDS011;10591;52.532;13.348;2024-02-21T14:24:26;10.75;;;5.05;;
20861;SDS011;10591;52.532;13.348;2024-02-21T14:26:57;6.75;;;5.08;;
20861;SDS011;10591;52.532;13.348;2024-02-21T14:29:28;7.92;;;4.20;;
20861;SDS011;10591;52.532;13.348;2024-02-21T14:31:59;7.72;;;4.55;;
20861;SDS011;10591;52.532;13.348;2024-02-21T14:34:30;7.90;;;4.17;;
20861;SDS011;10591;52.532;13.348;2024-02-21T14:37:01;6.42;;;4.30;;
20861;SDS011;10591;52.532;13.348;2024-02-21T14:39:33;6.37;;;4.30;;
20861;SDS011;10591;52.532;13.348;2024-02-21T14:42:04;6.75;;;4.28;;
20861;SDS011;10591;52.532;13.348;2024-02-21T14:44:36;6.00;;;4.25;;
20861;SDS011;10591;52.532;13.348;2024-02-21T14:47:08;7.47;;;4.17;;
20861;SDS011;10591;52.532;13.348;2024-02-21T14:49:39;6.22;;;3.92;;
20861;SDS011;10591;52.532;13.348;2024-02-21T14:52:10;6.12;;;4.47;;